Terminal Aerodrome Forecast
Issued by NWS

Home | Current Version | Previous Version | Text Only | Print | Product List | Glossary On
Versions: 1 2 3 4 5 6 7 8 9 10 11 12 13 14 15 16
000
FTUS42 KGSP 031136
TAFHKY
TAF
KHKY 031136Z 0312/0412 VRB02KT P6SM BKN250
     FM040000 VRB02KT P6SM OVC090
     FM040900 00000KT P6SM OVC045 PROB30 0409/0412 2SM -RA OVC015=

USA.gov is the U.S. government's official web portal to all federal, state and local government web resources and services.